Time;durP1;ratioP1;P1;durP2;ratioP2;P2;SDS_P1;SDS_P2;PMS_P1;PMS_P2;Temp;Humidity;BMP_temperature;BMP_pressure;BME280_temperature;BME280_humidity;BME280_pressure;Samples;Min_cycle;Max_cycle;Signal;HPM_P1;HPM_P2
2021/04/12 00:01:17;;;;;;;6.80;5.57;;;13.30;82.80;;;;;;5053349;28;20183;-58
2021/04/12 00:04:17;;;;;;;7.17;6.10;;;13.00;82.80;;;;;;5054400;28;20163;-47
2021/04/12 00:07:00;;;;;;;6.07;5.23;;;13.00;84.00;;;;;;5031528;28;20218;-54
2021/04/12 00:09:38;;;;;;;6.03;4.20;;;12.90;84.50;;;;;;5054490;28;20202;-47
2021/04/12 00:12:28;;;;;;;5.03;3.13;;;12.80;85.30;;;;;;5054162;28;20167;-50
2021/04/12 00:14:57;;;;;;;3.70;3.03;;;12.70;85.80;;;;;;5053102;28;20191;-58
2021/04/12 00:17:38;;;;;;;3.83;2.90;;;12.60;86.30;;;;;;5054294;28;20199;-54
2021/04/12 00:20:22;;;;;;;3.00;2.77;;;12.60;87.80;;;;;;5051703;28;20174;-47
2021/04/12 00:23:02;;;;;;;3.43;2.80;;;12.40;88.20;;;;;;5054147;28;20178;-50
2021/04/12 00:25:42;;;;;;;3.50;2.80;;;13.30;89.80;;;;;;5053936;28;20187;-55
2021/04/12 00:28:15;;;;;;;4.17;3.20;;;12.50;89.30;;;;;;5054469;28;20179;-55
2021/04/12 00:31:04;;;;;;;4.17;2.80;;;12.50;89.30;;;;;;5053277;28;20271;-57
2021/04/12 00:33:50;;;;;;;4.23;3.60;;;12.50;89.30;;;;;;5053728;28;20623;-58
2021/04/12 00:36:25;;;;;;;4.40;3.33;;;12.40;89.60;;;;;;5053610;28;20296;-47
2021/04/12 00:38:54;;;;;;;4.43;3.80;;;12.20;89.90;;;;;;5052780;28;20642;-48
2021/04/12 00:41:26;;;;;;;4.20;3.80;;;11.80;90.70;;;;;;5053714;28;20171;-56
2021/04/12 00:44:13;;;;;;;4.57;3.80;;;11.40;91.90;;;;;;5053788;28;20241;-57
2021/04/12 00:46:50;;;;;;;6.23;4.17;;;10.90;95.00;;;;;;5053073;28;20735;-50
2021/04/12 00:49:30;;;;;;;4.87;4.10;;;10.70;97.50;;;;;;5053834;28;20171;-51
2021/04/12 00:52:07;;;;;;;6.80;4.13;;;10.50;99.30;;;;;;5052879;28;20321;-50
2021/04/12 00:54:54;;;;;;;6.17;4.20;;;10.50;99.90;;;;;;5054872;28;20162;-52
2021/04/12 00:57:48;;;;;;;5.33;4.30;;;10.50;99.90;;;;;;5058076;28;20205;-46
2021/04/12 01:00:55;;;;;;;5.07;4.43;;;10.50;99.90;;;;;;5057198;28;20639;-54
2021/04/12 01:03:56;;;;;;;6.70;5.10;;;10.30;99.90;;;;;;4996758;28;20699;-55
2021/04/12 01:06:45;;;;;;;6.50;4.77;;;10.30;99.90;;;;;;4996297;28;20621;-49
2021/04/12 01:09:25;;;;;;;5.73;4.60;;;10.40;99.90;;;;;;5008674;28;20180;-57
2021/04/12 01:12:09;;;;;;;6.80;5.10;;;10.40;99.90;;;;;;5057516;28;20603;-55
2021/04/12 01:15:00;;;;;;;6.47;4.97;;;10.40;99.90;;;;;;5057598;28;20173;-52
2021/04/12 01:17:29;;;;;;;5.63;4.63;;;10.40;99.90;;;;;;5057235;28;20238;-54
2021/04/12 01:20:32;;;;;;;5.53;4.83;;;10.30;99.90;;;;;;5057473;28;20170;-50
2021/04/12 01:23:06;;;;;;;5.43;4.87;;;10.20;99.90;;;;;;5057486;28;20178;-56
2021/04/12 01:26:02;;;;;;;5.53;5.00;;;10.10;99.90;;;;;;5056834;28;20191;-55
2021/04/12 01:29:02;;;;;;;5.30;4.80;;;10.10;99.90;;;;;;5057096;28;20258;-47
2021/04/12 01:32:03;;;;;;;5.13;4.63;;;10.00;99.90;;;;;;5055895;28;20604;-47
2021/04/12 01:34:54;;;;;;;5.10;4.53;;;10.00;99.90;;;;;;5057423;28;20178;-46
2021/04/12 01:37:46;;;;;;;5.73;4.97;;;10.10;99.90;;;;;;5056920;28;20222;-49
2021/04/12 01:40:41;;;;;;;5.33;4.83;;;10.10;99.90;;;;;;5057735;28;20175;-49
2021/04/12 01:43:36;;;;;;;5.67;4.63;;;10.10;99.90;;;;;;5036021;28;20221;-51
2021/04/12 01:46:06;;;;;;;5.57;4.33;;;9.90;99.90;;;;;;5057142;28;20686;-49
2021/04/12 01:49:10;;;;;;;5.43;4.73;;;9.80;99.90;;;;;;5055803;28;20168;-50
2021/04/12 01:52:19;;;;;;;5.67;4.30;;;9.70;99.90;;;;;;5056889;28;20185;-57
2021/04/12 01:55:01;;;;;;;4.70;4.30;;;9.70;99.90;;;;;;5055722;28;20194;-60
2021/04/12 01:57:36;;;;;;;4.50;4.10;;;9.70;99.90;;;;;;5057073;28;20288;-55
2021/04/12 02:00:17;;;;;;;5.10;4.13;;;9.60;99.90;;;;;;5055913;28;20691;-51
2021/04/12 02:03:10;;;;;;;4.27;3.87;;;9.60;99.90;;;;;;5056643;28;20293;-54
2021/04/12 02:05:39;;;;;;;5.93;3.80;;;9.50;99.90;;;;;;5055939;28;20197;-49
2021/04/12 02:08:34;;;;;;;3.83;3.53;;;9.40;99.90;;;;;;5056521;28;20175;-46
2021/04/12 02:11:17;;;;;;;3.90;3.60;;;9.50;99.90;;;;;;5055238;28;20655;-52
2021/04/12 02:13:45;;;;;;;3.30;3.10;;;9.50;99.90;;;;;;5056559;28;20211;-58
2021/04/12 02:16:26;;;;;;;3.87;3.47;;;9.60;99.90;;;;;;5056373;28;20229;-52
2021/04/12 02:19:17;;;;;;;3.50;3.20;;;9.50;99.90;;;;;;5055183;28;20274;-46
2021/04/12 02:22:09;;;;;;;3.73;3.40;;;9.50;99.90;;;;;;5056201;28;20254;-46
2021/04/12 02:25:18;;;;;;;3.53;3.23;;;9.50;99.90;;;;;;5055280;28;20240;-54
2021/04/12 02:27:52;;;;;;;3.50;3.03;;;9.60;99.90;;;;;;5056348;28;20179;-55
2021/04/12 02:30:51;;;;;;;3.40;3.10;;;9.70;99.90;;;;;;5055430;28;20175;-50
2021/04/12 02:33:32;;;;;;;3.90;3.03;;;9.80;99.90;;;;;;5056581;28;20183;-50
2021/04/12 02:36:53;;;;;;;3.00;2.80;;;9.80;99.90;;;;;;5058022;28;20214;-52
2021/04/12 02:39:55;;;;;;;3.07;2.83;;;9.70;99.90;;;;;;5053081;28;20219;-50
2021/04/12 02:42:52;;;;;;;3.10;2.80;;;9.70;99.90;;;;;;5052277;28;20187;-58
2021/04/12 02:45:48;;;;;;;3.03;2.80;;;9.60;99.90;;;;;;5013336;28;20249;-55
2021/04/12 02:48:39;;;;;;;2.80;2.60;;;9.60;99.90;;;;;;5032680;28;20156;-52
2021/04/12 02:51:14;;;;;;;2.93;2.73;;;9.50;99.90;;;;;;5033460;28;20198;-58
2021/04/12 02:54:03;;;;;;;3.00;2.70;;;9.50;99.90;;;;;;5033922;28;20242;-55
2021/04/12 02:56:39;;;;;;;2.63;2.43;;;9.50;99.90;;;;;;5033250;28;20204;-48
2021/04/12 02:59:36;;;;;;;2.93;2.63;;;9.50;99.90;;;;;;5033924;28;20199;-50
2021/04/12 03:02:25;;;;;;;3.03;2.83;;;9.40;99.90;;;;;;5008337;28;20599;-53
2021/04/12 03:05:05;;;;;;;2.87;2.67;;;9.40;99.90;;;;;;5033426;28;20172;-49
2021/04/12 03:08:10;;;;;;;3.07;2.87;;;9.40;99.90;;;;;;5033353;28;20186;-54
2021/04/12 03:11:09;;;;;;;3.17;2.87;;;9.30;99.90;;;;;;5033380;28;20179;-54
2021/04/12 03:14:20;;;;;;;3.10;2.90;;;9.30;99.90;;;;;;5033142;28;20172;-49
2021/04/12 03:17:01;;;;;;;4.13;3.00;;;9.30;99.90;;;;;;5054814;28;20257;-52
2021/04/12 03:19:52;;;;;;;3.30;3.00;;;9.40;99.90;;;;;;5054845;28;20271;-60
2021/04/12 03:22:59;;;;;;;3.10;2.80;;;9.40;99.90;;;;;;5055049;28;20175;-54
2021/04/12 03:25:51;;;;;;;2.77;2.57;;;9.40;99.90;;;;;;5054229;28;20183;-49
2021/04/12 03:28:46;;;;;;;3.37;3.07;;;9.20;99.90;;;;;;5054999;28;20612;-55
2021/04/12 03:32:06;;;;;;;3.07;2.87;;;9.10;99.90;;;;;;5069429;28;20174;-58
2021/04/12 03:35:06;;;;;;;3.30;3.00;;;9.10;99.90;;;;;;5052800;28;20717;-51
2021/04/12 03:37:54;;;;;;;3.73;3.37;;;9.20;99.90;;;;;;5053122;28;20211;-58
2021/04/12 03:40:20;;;;;;;3.30;3.00;;;9.30;99.90;;;;;;5052888;28;20175;-53
2021/04/12 03:42:55;;;;;;;3.30;3.10;;;9.40;99.90;;;;;;5051642;28;20171;-49
2021/04/12 03:45:48;;;;;;;3.50;3.20;;;9.50;99.90;;;;;;5052970;28;20174;-49
2021/04/12 03:48:38;;;;;;;3.40;3.10;;;9.50;99.90;;;;;;5051241;28;20179;-50
2021/04/12 03:51:37;;;;;;;3.60;3.30;;;9.50;99.90;;;;;;5052191;28;20359;-58
2021/04/12 03:54:34;;;;;;;3.27;2.97;;;9.40;99.90;;;;;;5052201;28;20644;-57
2021/04/12 03:57:08;;;;;;;3.60;3.30;;;9.40;99.90;;;;;;5050989;28;20265;-50
2021/04/12 03:59:56;;;;;;;3.23;3.03;;;9.40;99.90;;;;;;5052591;28;20230;-49
2021/04/12 04:03:01;;;;;;;3.67;3.37;;;9.40;99.90;;;;;;5050881;28;20262;-57
2021/04/12 04:05:51;;;;;;;3.40;3.10;;;9.50;99.90;;;;;;5052157;28;20198;-55
2021/04/12 04:08:19;;;;;;;4.17;3.77;;;9.50;99.90;;;;;;5061356;28;20528;-58
2021/04/12 04:11:02;;;;;;;4.13;3.73;;;9.50;99.90;;;;;;5074597;28;20171;-60
2021/04/12 04:13:42;;;;;;;3.60;3.30;;;9.50;99.90;;;;;;5072977;28;20332;-52
2021/04/12 04:16:27;;;;;;;3.73;3.40;;;9.50;99.90;;;;;;5074151;28;20281;-49
2021/04/12 04:19:12;;;;;;;4.00;3.60;;;9.60;99.90;;;;;;5073367;28;20190;-54
2021/04/12 04:21:49;;;;;;;4.17;3.60;;;9.60;99.90;;;;;;5073776;28;20162;-53
2021/04/12 04:24:36;;;;;;;3.70;3.40;;;9.70;99.90;;;;;;5074200;28;20245;-59
2021/04/12 04:27:37;;;;;;;4.60;3.60;;;9.80;99.90;;;;;;5074405;28;20546;-54
2021/04/12 04:30:10;;;;;;;4.20;3.50;;;9.80;99.90;;;;;;5064961;28;20190;-52
2021/04/12 04:32:48;;;;;;;3.60;3.30;;;9.80;99.90;;;;;;5059850;28;20190;-48
2021/04/12 04:35:48;;;;;;;4.40;3.67;;;9.70;99.90;;;;;;5061351;28;20535;-50
2021/04/12 04:38:39;;;;;;;3.90;3.50;;;9.70;99.90;;;;;;4997509;28;20616;-56
2021/04/12 04:41:42;;;;;;;4.10;3.70;;;9.70;99.90;;;;;;5064012;28;20183;-49
2021/04/12 04:44:15;;;;;;;3.70;3.40;;;9.60;99.90;;;;;;5063846;28;20182;-53
2021/04/12 04:47:18;;;;;;;3.93;3.63;;;9.60;99.90;;;;;;5073349;28;20201;-57
2021/04/12 04:50:04;;;;;;;4.23;3.83;;;9.60;99.90;;;;;;5073840;28;20223;-51
2021/04/12 04:52:42;;;;;;;5.50;3.90;;;9.50;99.90;;;;;;5071519;28;20653;-51
2021/04/12 04:55:51;;;;;;;3.90;3.60;;;9.40;99.90;;;;;;5064078;28;20170;-53
2021/04/12 04:58:32;;;;;;;4.00;3.70;;;9.50;99.90;;;;;;5089036;28;20205;-54
2021/04/12 05:01:16;;;;;;;4.10;3.80;;;9.60;99.90;;;;;;5074709;28;20649;-54
2021/04/12 05:04:01;;;;;;;4.13;3.73;;;9.70;99.90;;;;;;5070086;28;20676;-56
2021/04/12 05:06:46;;;;;;;4.60;3.90;;;9.60;99.90;;;;;;5072377;28;20197;-58
2021/04/12 05:09:30;;;;;;;4.70;4.30;;;9.60;99.90;;;;;;5056572;28;20631;-48
2021/04/12 05:12:20;;;;;;;4.63;4.23;;;9.60;99.90;;;;;;5074529;28;20672;-50
2021/04/12 05:15:25;;;;;;;5.27;4.20;;;9.70;99.90;;;;;;5071522;28;20250;-56
2021/04/12 05:18:09;;;;;;;4.40;4.00;;;9.80;99.90;;;;;;5065680;28;21514;-54
2021/04/12 05:20:55;;;;;;;4.27;3.87;;;10.00;99.90;;;;;;5076567;28;20197;-50
2021/04/12 05:23:26;;;;;;;4.50;4.10;;;10.20;99.90;;;;;;5064491;28;20595;-59
2021/04/12 05:26:13;;;;;;;4.47;4.07;;;10.40;99.90;;;;;;5063505;28;20191;-48
2021/04/12 05:28:58;;;;;;;4.23;3.83;;;10.40;99.90;;;;;;5059698;28;20178;-52
2021/04/12 05:31:42;;;;;;;6.40;3.90;;;10.30;99.90;;;;;;5066898;28;20197;-51
2021/04/12 05:34:23;;;;;;;4.80;3.80;;;10.30;99.90;;;;;;5071090;28;20202;-50
2021/04/12 05:37:29;;;;;;;4.30;3.90;;;10.40;99.90;;;;;;5072235;28;20677;-48
2021/04/12 05:40:08;;;;;;;4.27;3.87;;;10.40;99.90;;;;;;5057944;28;20236;-49
2021/04/12 05:42:58;;;;;;;4.10;3.80;;;10.50;99.90;;;;;;5057716;28;20187;-57
2021/04/12 05:45:46;;;;;;;4.70;4.27;;;10.50;99.90;;;;;;5075534;28;20174;-49
2021/04/12 05:48:50;;;;;;;4.10;3.80;;;10.50;99.90;;;;;;5076465;28;20182;-53
2021/04/12 05:51:34;;;;;;;4.43;4.03;;;10.40;99.90;;;;;;5075580;28;20487;-57
2021/04/12 05:54:30;;;;;;;5.13;4.63;;;10.30;99.90;;;;;;5065100;28;20225;-51
2021/04/12 05:57:05;;;;;;;5.40;4.23;;;10.20;99.90;;;;;;5070461;28;20240;-54
2021/04/12 05:59:49;;;;;;;5.63;4.37;;;10.00;99.90;;;;;;5058596;28;20178;-48
2021/04/12 06:02:23;;;;;;;4.80;4.40;;;9.90;99.90;;;;;;5055956;28;20254;-57
2021/04/12 06:05:19;;;;;;;5.17;4.67;;;10.70;99.90;;;;;;5056674;28;20258;-55
2021/04/12 06:07:59;;;;;;;6.00;4.83;;;9.90;99.90;;;;;;5055299;28;20202;-59
2021/04/12 06:11:00;;;;;;;5.47;4.97;;;9.90;99.90;;;;;;5057163;28;20484;-50
2021/04/12 06:13:51;;;;;;;5.40;4.90;;;10.00;99.90;;;;;;5066014;28;20182;-57
2021/04/12 06:17:01;;;;;;;5.93;5.33;;;10.10;99.90;;;;;;5061888;28;20230;-45
2021/04/12 06:19:50;;;;;;;5.67;5.17;;;10.20;99.90;;;;;;5034538;28;20215;-52
2021/04/12 06:22:50;;;;;;;5.80;5.20;;;10.10;99.90;;;;;;5068544;28;20189;-45
2021/04/12 06:25:57;;;;;;;6.93;5.63;;;10.10;99.90;;;;;;5053042;28;20205;-45
2021/04/12 06:28:43;;;;;;;6.20;5.60;;;10.00;99.90;;;;;;5045592;28;20181;-52
2021/04/12 06:31:23;;;;;;;6.60;6.00;;;10.00;99.90;;;;;;5053487;28;20186;-47
2021/04/12 06:33:54;;;;;;;6.67;5.73;;;10.00;99.90;;;;;;5032875;28;20202;-53
2021/04/12 06:36:46;;;;;;;7.00;5.70;;;9.90;99.90;;;;;;5040173;28;20219;-56
2021/04/12 06:39:21;;;;;;;7.07;6.37;;;10.00;99.90;;;;;;5053485;28;20209;-49
2021/04/12 06:42:11;;;;;;;7.07;6.37;;;10.00;99.90;;;;;;5053221;28;20261;-49
2021/04/12 06:45:04;;;;;;;7.17;6.47;;;10.00;99.90;;;;;;5054162;28;20187;-56
2021/04/12 06:48:00;;;;;;;9.23;7.43;;;10.00;99.90;;;;;;5052256;28;20211;-57
2021/04/12 06:50:46;;;;;;;7.33;6.60;;;9.90;99.90;;;;;;5053697;28;20275;-57
2021/04/12 06:53:45;;;;;;;7.53;6.83;;;9.80;99.90;;;;;;5051724;28;20589;-55
2021/04/12 06:56:17;;;;;;;6.80;6.10;;;9.80;99.90;;;;;;5054790;28;20256;-46
2021/04/12 06:58:54;;;;;;;7.27;6.57;;;9.80;99.90;;;;;;5055950;28;20207;-46
2021/04/12 07:01:50;;;;;;;8.60;6.13;;;9.90;99.90;;;;;;5064662;28;20620;-56
2021/04/12 07:04:34;;;;;;;7.20;6.50;;;10.00;99.90;;;;;;5076093;28;20561;-57
2021/04/12 07:07:05;;;;;;;7.17;6.47;;;10.10;99.90;;;;;;5071265;28;20738;-53
2021/04/12 07:09:52;;;;;;;6.67;6.00;;;10.10;99.90;;;;;;5075043;28;20181;-55
2021/04/12 07:12:55;;;;;;;6.57;5.93;;;10.20;99.90;;;;;;5074047;28;20274;-48
2021/04/12 07:15:21;;;;;;;7.07;6.37;;;10.20;99.90;;;;;;5075239;28;20181;-55
2021/04/12 07:18:25;;;;;;;8.33;6.07;;;10.20;99.90;;;;;;5065595;28;20195;-55
2021/04/12 07:21:32;;;;;;;6.87;5.50;;;10.10;99.90;;;;;;5073781;28;20173;-53
2021/04/12 07:24:17;;;;;;;6.43;5.67;;;9.90;99.90;;;;;;5054346;28;20659;-52
2021/04/12 07:27:01;;;;;;;6.23;5.60;;;9.80;99.90;;;;;;5055598;28;20190;-45
2021/04/12 07:30:08;;;;;;;6.30;5.70;;;9.80;99.90;;;;;;5072577;28;20177;-55
2021/04/12 07:32:58;;;;;;;6.63;6.03;;;9.60;99.90;;;;;;5074635;28;20202;-58
2021/04/12 07:36:09;;;;;;;7.30;6.60;;;9.50;99.90;;;;;;5075152;28;20545;-50
2021/04/12 07:39:12;;;;;;;7.30;6.60;;;9.30;99.90;;;;;;5075198;28;20194;-57
2021/04/12 07:42:15;;;;;;;8.70;7.90;;;9.30;99.90;;;;;;5063203;28;20213;-46
2021/04/12 07:45:23;;;;;;;8.33;7.53;;;9.30;99.90;;;;;;5074915;28;20194;-45
2021/04/12 07:48:06;;;;;;;8.33;7.43;;;9.40;99.90;;;;;;5073403;28;20181;-46
2021/04/12 07:51:11;;;;;;;9.60;8.33;;;9.60;99.90;;;;;;5074985;28;20293;-49
2021/04/12 07:54:24;;;;;;;9.70;8.40;;;9.60;99.90;;;;;;5073479;28;20197;-51
2021/04/12 07:57:38;;;;;;;9.37;7.80;;;9.30;99.90;;;;;;5032454;28;20222;-47
2021/04/12 08:00:31;;;;;;;8.23;7.43;;;9.10;99.90;;;;;;4962272;28;20194;-55
2021/04/12 08:03:17;;;;;;;8.43;7.63;;;9.00;99.90;;;;;;5032062;28;20180;-52
2021/04/12 08:06:19;;;;;;;8.43;7.63;;;9.00;99.90;;;;;;5032193;28;20271;-55
2021/04/12 08:09:12;;;;;;;7.67;6.97;;;8.80;99.90;;;;;;5032080;28;20233;-45
2021/04/12 08:12:06;;;;;;;7.90;7.10;;;8.60;99.90;;;;;;5030847;28;20189;-51
2021/04/12 08:14:52;;;;;;;7.47;6.67;;;8.50;99.90;;;;;;5032732;28;20180;-52
2021/04/12 08:18:12;;;;;;;6.97;6.37;;;8.40;99.90;;;;;;5030934;28;20207;-51
2021/04/12 08:21:05;;;;;;;6.47;5.50;;;8.40;99.90;;;;;;4954357;29;20186;-53
2021/04/12 08:24:02;;;;;;;6.20;5.60;;;8.20;99.90;;;;;;4953299;29;20202;-50
2021/04/12 08:26:53;;;;;;;6.27;5.67;;;8.00;99.90;;;;;;5001078;28;20208;-51
2021/04/12 08:29:35;;;;;;;5.73;5.13;;;8.00;99.90;;;;;;5018257;28;20179;-55
2021/04/12 08:32:09;;;;;;;5.50;5.00;;;7.90;99.90;;;;;;5011570;28;20588;-52
2021/04/12 08:35:09;;;;;;;4.93;4.50;;;7.70;99.90;;;;;;5054207;28;20178;-56
2021/04/12 08:38:13;;;;;;;4.50;4.10;;;7.60;99.90;;;;;;5054248;28;20729;-50
2021/04/12 08:41:00;;;;;;;4.80;4.40;;;7.50;99.90;;;;;;5060021;28;20174;-50
2021/04/12 08:43:55;;;;;;;4.33;3.93;;;7.40;99.90;;;;;;5073590;28;20167;-49
2021/04/12 08:47:05;;;;;;;3.97;3.53;;;7.30;99.90;;;;;;5058662;28;20206;-56
2021/04/12 08:50:16;;;;;;;3.60;3.30;;;7.20;99.90;;;;;;5073830;28;20174;-50
2021/04/12 08:53:12;;;;;;;3.50;3.20;;;7.10;99.90;;;;;;5057217;28;20345;-53
2021/04/12 08:56:09;;;;;;;3.80;3.50;;;6.90;99.90;;;;;;5071006;28;20554;-46
2021/04/12 08:58:59;;;;;;;3.70;3.40;;;6.70;99.90;;;;;;5050634;28;20300;-46
2021/04/12 09:01:34;;;;;;;4.13;3.73;;;6.50;99.90;;;;;;5052404;28;20642;-54
2021/04/12 09:04:37;;;;;;;3.70;3.40;;;6.40;99.90;;;;;;5068974;28;20178;-55
2021/04/12 09:07:31;;;;;;;3.50;2.93;;;6.40;99.90;;;;;;5073324;28;20622;-55
2021/04/12 09:10:02;;;;;;;3.60;3.30;;;6.40;99.90;;;;;;5062261;28;20166;-56
2021/04/12 09:13:22;;;;;;;3.67;3.27;;;6.30;99.90;;;;;;5063007;28;20197;-47
2021/04/12 09:16:38;;;;;;;3.87;3.57;;;6.10;99.90;;;;;;5024407;28;20208;-53
2021/04/12 09:19:29;;;;;;;3.27;3.03;;;6.00;99.90;;;;;;5001700;28;20267;-58
2021/04/12 09:22:16;;;;;;;3.77;3.00;;;6.00;99.90;;;;;;5062098;28;20250;-52
2021/04/12 09:25:05;;;;;;;3.47;3.17;;;5.80;99.90;;;;;;5058783;28;20191;-52
2021/04/12 09:28:04;;;;;;;3.93;3.23;;;5.70;99.90;;;;;;5064424;28;20229;-45
2021/04/12 09:31:06;;;;;;;3.77;2.87;;;5.60;99.90;;;;;;5059447;28;20205;-53
2021/04/12 09:33:56;;;;;;;3.00;2.80;;;5.50;99.90;;;;;;5070270;28;20188;-52
2021/04/12 09:36:55;;;;;;;2.67;2.47;;;5.40;99.90;;;;;;5061499;28;20214;-56
2021/04/12 09:39:39;;;;;;;2.77;2.57;;;5.20;99.90;;;;;;5064796;28;20732;-45
2021/04/12 09:42:13;;;;;;;2.70;2.50;;;5.20;99.90;;;;;;5060629;28;20189;-47
2021/04/12 09:44:47;;;;;;;2.90;2.70;;;5.10;99.90;;;;;;5060533;28;20178;-48
2021/04/12 09:47:50;;;;;;;2.70;2.50;;;5.10;99.90;;;;;;5076608;28;20260;-55
2021/04/12 09:50:40;;;;;;;4.43;2.60;;;5.20;99.90;;;;;;5077437;28;20170;-47
2021/04/12 09:53:24;;;;;;;2.57;2.37;;;5.10;99.90;;;;;;5076941;28;20265;-55
2021/04/12 09:56:04;;;;;;;2.60;2.40;;;5.00;99.90;;;;;;5075940;28;20206;-55
2021/04/12 09:58:51;;;;;;;2.40;2.30;;;4.90;99.90;;;;;;5076553;28;20198;-45
2021/04/12 10:01:47;;;;;;;2.30;2.20;;;4.80;99.90;;;;;;5076904;28;20216;-55
2021/04/12 10:04:44;;;;;;;2.77;2.37;;;4.60;99.90;;;;;;5076519;28;20182;-48
2021/04/12 10:07:14;;;;;;;2.50;2.30;;;4.40;99.90;;;;;;5076878;28;20194;-48
2021/04/12 10:09:44;;;;;;;2.63;2.43;;;4.30;99.90;;;;;;5076420;28;20179;-55
2021/04/12 10:12:15;;;;;;;2.70;2.50;;;4.30;99.90;;;;;;5075091;28;20186;-45
2021/04/12 10:14:49;;;;;;;3.33;2.70;;;4.30;99.90;;;;;;5076845;28;20223;-47
2021/04/12 10:17:19;;;;;;;2.90;2.70;;;4.40;99.90;;;;;;5076020;28;20198;-58
2021/04/12 10:19:54;;;;;;;3.07;2.87;;;4.40;99.90;;;;;;5075767;28;20166;-55
2021/04/12 10:22:46;;;;;;;3.63;3.30;;;4.40;99.90;;;;;;5074876;28;20190;-58
2021/04/12 10:25:36;;;;;;;3.30;3.00;;;4.30;99.90;;;;;;5076269;28;20197;-52
2021/04/12 10:28:08;;;;;;;3.80;3.50;;;4.20;99.90;;;;;;5074548;28;20174;-47
2021/04/12 10:30:48;;;;;;;3.80;3.50;;;4.20;99.90;;;;;;5076016;28;20594;-47
2021/04/12 10:33:41;;;;;;;4.67;4.27;;;4.30;99.90;;;;;;5065367;28;20191;-45
2021/04/12 10:36:15;;;;;;;4.50;4.10;;;4.20;99.90;;;;;;5053573;28;20230;-47
2021/04/12 10:38:44;;;;;;;4.53;4.13;;;4.20;99.90;;;;;;5067458;28;20233;-45
2021/04/12 10:41:33;;;;;;;4.70;4.30;;;4.20;99.90;;;;;;5075318;28;20184;-55
2021/04/12 10:44:07;;;;;;;4.70;4.30;;;4.30;99.90;;;;;;5075960;28;20174;-57
2021/04/12 10:46:50;;;;;;;5.07;4.67;;;4.30;99.90;;;;;;5075694;28;20193;-47
2021/04/12 10:49:33;;;;;;;5.13;4.47;;;4.10;99.90;;;;;;5075551;28;20206;-46
2021/04/12 10:52:10;;;;;;;5.27;4.87;;;4.00;99.90;;;;;;5075944;28;20254;-52
2021/04/12 10:55:04;;;;;;;5.60;5.10;;;4.00;99.90;;;;;;5075234;28;20613;-46
2021/04/12 10:57:47;;;;;;;5.43;4.93;;;4.00;99.90;;;;;;5075425;28;20248;-46
2021/04/12 11:00:28;;;;;;;5.63;5.13;;;4.10;99.90;;;;;;5075595;28;20170;-49
2021/04/12 11:03:23;;;;;;;5.50;5.00;;;4.00;99.90;;;;;;5074658;28;20159;-45
2021/04/12 11:06:18;;;;;;;5.27;4.83;;;3.90;99.90;;;;;;5075387;28;20210;-50
2021/04/12 11:08:54;;;;;;;5.70;5.20;;;3.70;99.90;;;;;;5075797;28;20162;-53
2021/04/12 11:11:27;;;;;;;5.40;4.90;;;3.80;99.90;;;;;;5074314;28;20186;-56
2021/04/12 11:14:19;;;;;;;5.23;4.83;;;3.70;99.90;;;;;;5073978;28;20179;-58
2021/04/12 11:16:50;;;;;;;5.47;4.97;;;3.70;99.90;;;;;;5064524;28;20202;-53
2021/04/12 11:19:25;;;;;;;4.27;3.97;;;3.70;99.90;;;;;;5072193;28;20213;-45
2021/04/12 11:22:16;;;;;;;5.30;4.00;;;3.70;99.90;;;;;;5070648;28;20380;-44
2021/04/12 11:24:51;;;;;;;4.57;4.17;;;3.70;99.90;;;;;;5070539;28;20219;-46
2021/04/12 11:27:39;;;;;;;4.80;4.40;;;3.60;99.90;;;;;;5075234;28;20277;-45
2021/04/12 11:30:27;;;;;;;4.43;4.03;;;3.80;99.90;;;;;;5062679;28;20188;-54
2021/04/12 11:33:17;;;;;;;4.57;4.17;;;3.80;99.90;;;;;;5064320;28;20522;-48
2021/04/12 11:36:22;;;;;;;4.60;4.20;;;3.70;99.90;;;;;;5064844;28;20202;-44
2021/04/12 11:39:17;;;;;;;4.30;3.90;;;3.60;99.90;;;;;;5032604;28;20237;-45
2021/04/12 11:42:04;;;;;;;4.33;4.03;;;3.60;99.90;;;;;;5056993;28;20904;-51
2021/04/12 11:44:42;;;;;;;4.67;4.30;;;3.70;99.90;;;;;;5065563;28;20173;-56
2021/04/12 11:47:45;;;;;;;4.60;4.20;;;3.70;99.90;;;;;;5074763;28;20209;-50
2021/04/12 11:50:38;;;;;;;4.70;4.30;;;3.80;99.90;;;;;;5065159;28;20638;-48
2021/04/12 11:53:15;;;;;;;4.53;4.13;;;3.90;99.90;;;;;;5054597;28;20171;-50
2021/04/12 11:55:59;;;;;;;4.53;4.13;;;3.90;99.90;;;;;;5073100;28;20201;-44
2021/04/12 11:58:47;;;;;;;4.27;3.97;;;4.00;99.90;;;;;;5072408;28;20298;-54
2021/04/12 12:01:27;;;;;;;5.10;4.63;;;4.10;99.90;;;;;;5073015;28;20170;-56
2021/04/12 12:04:39;;;;;;;4.73;4.33;;;4.10;99.90;;;;;;5073716;28;20186;-47
2021/04/12 12:07:16;;;;;;;4.30;4.00;;;3.90;99.90;;;;;;5054126;28;20199;-49
2021/04/12 12:10:02;;;;;;;4.80;4.40;;;4.00;99.90;;;;;;5073975;28;20178;-44
2021/04/12 12:13:09;;;;;;;3.77;3.53;;;4.10;99.90;;;;;;5072511;28;20178;-52
2021/04/12 12:16:04;;;;;;;4.40;4.07;;;4.20;99.90;;;;;;5066898;28;20674;-50
2021/04/12 12:18:35;;;;;;;3.73;3.43;;;4.20;99.90;;;;;;5073036;28;20856;-55
2021/04/12 12:21:24;;;;;;;3.80;3.50;;;4.10;99.90;;;;;;5064064;28;20170;-48
2021/04/12 12:24:09;;;;;;;4.03;3.73;;;4.00;99.90;;;;;;5052573;28;20206;-54
2021/04/12 12:26:59;;;;;;;6.33;5.73;;;4.00;99.90;;;;;;5053523;28;20220;-57
2021/04/12 12:29:33;;;;;;;5.17;4.77;;;4.00;99.90;;;;;;5058967;28;20186;-45
2021/04/12 12:32:16;;;;;;;6.57;5.97;;;4.20;99.90;;;;;;5064478;28;20179;-47
2021/04/12 12:35:07;;;;;;;4.90;4.50;;;4.40;99.90;;;;;;5063052;28;20257;-52
2021/04/12 12:37:52;;;;;;;3.80;3.50;;;4.40;99.90;;;;;;5066055;28;20232;-48
2021/04/12 12:40:20;;;;;;;6.83;6.23;;;4.30;99.90;;;;;;5064863;28;20169;-45
2021/04/12 12:42:50;;;;;;;4.53;3.40;;;4.20;99.90;;;;;;5071330;28;20722;-58
2021/04/12 12:45:27;;;;;;;4.30;4.00;;;4.20;99.90;;;;;;5072802;28;20187;-47
2021/04/12 12:47:57;;;;;;;3.87;3.57;;;4.30;99.90;;;;;;5069137;28;20181;-51
2021/04/12 12:50:30;;;;;;;3.67;3.37;;;4.30;99.90;;;;;;5054343;28;20186;-53
2021/04/12 12:53:01;;;;;;;3.50;3.30;;;4.30;99.90;;;;;;5060351;28;20186;-54
2021/04/12 12:55:30;;;;;;;3.80;3.50;;;4.40;99.90;;;;;;5068435;28;20257;-47
2021/04/12 12:57:57;;;;;;;3.43;3.23;;;4.40;99.90;;;;;;5061158;28;20252;-53
2021/04/12 13:00:45;;;;;;;3.70;3.40;;;4.40;99.90;;;;;;5062789;28;20171;-47
2021/04/12 13:03:31;;;;;;;3.80;3.50;;;6.30;99.90;;;;;;5053265;28;20179;-47
2021/04/12 13:06:10;;;;;;;3.33;3.13;;;4.50;99.90;;;;;;5053563;28;20237;-51
2021/04/12 13:08:37;;;;;;;3.60;3.30;;;4.50;99.90;;;;;;5060062;28;20597;-50
2021/04/12 13:11:03;;;;;;;3.30;3.10;;;4.40;99.90;;;;;;5063639;28;20205;-49
2021/04/12 13:13:34;;;;;;;3.30;3.10;;;4.30;99.90;;;;;;5064133;28;20175;-45
2021/04/12 13:16:19;;;;;;;3.70;3.40;;;4.20;99.90;;;;;;5062278;28;20663;-58
2021/04/12 13:18:59;;;;;;;3.20;3.00;;;4.20;99.90;;;;;;5063252;28;20203;-52
2021/04/12 13:21:33;;;;;;;3.67;3.37;;;4.30;99.90;;;;;;5061801;28;20246;-58
2021/04/12 13:24:15;;;;;;;3.17;2.97;;;4.40;99.90;;;;;;5062738;28;20650;-45
2021/04/12 13:26:47;;;;;;;3.70;3.40;;;4.50;99.90;;;;;;5063822;28;20210;-47
2021/04/12 13:29:20;;;;;;;3.63;3.33;;;4.50;99.90;;;;;;5055704;28;20254;-49
2021/04/12 13:32:00;;;;;;;3.60;3.30;;;4.50;99.90;;;;;;5052145;28;20738;-53
2021/04/12 13:34:47;;;;;;;3.60;3.30;;;4.50;99.90;;;;;;5053484;28;20554;-52
2021/04/12 13:37:28;;;;;;;12.37;7.87;;;4.50;99.90;;;;;;5052279;28;20675;-48
2021/04/12 13:39:59;;;;;;;16.70;11.83;;;4.50;99.90;;;;;;5052952;28;20207;-50
2021/04/12 13:42:33;;;;;;;9.77;7.47;;;4.40;99.90;;;;;;5053293;28;20163;-50
2021/04/12 13:45:09;;;;;;;8.70;6.53;;;4.50;99.90;;;;;;5052077;28;20186;-49
2021/04/12 13:47:47;;;;;;;15.77;12.03;;;4.50;99.90;;;;;;5053784;28;20163;-47
2021/04/12 13:50:38;;;;;;;2.77;2.57;;;4.60;99.90;;;;;;5052230;28;20631;-45
2021/04/12 13:53:16;;;;;;;5.30;4.80;;;4.50;99.90;;;;;;5053230;28;20202;-46
2021/04/12 13:55:51;;;;;;;2.73;2.53;;;4.30;99.90;;;;;;5053578;28;20209;-46
2021/04/12 13:58:26;;;;;;;5.53;5.00;;;4.20;99.90;;;;;;5053261;28;20206;-45
2021/04/12 14:01:01;;;;;;;2.43;2.23;;;4.20;99.90;;;;;;5051910;28;20194;-55
2021/04/12 14:03:31;;;;;;;2.40;2.20;;;4.20;99.90;;;;;;5055332;28;20173;-58
2021/04/12 14:06:06;;;;;;;2.60;2.40;;;4.10;99.90;;;;;;5057128;28;20651;-53
2021/04/12 14:08:53;;;;;;;3.03;2.83;;;4.10;99.90;;;;;;5055648;28;20218;-51
2021/04/12 14:11:37;;;;;;;2.33;2.13;;;4.20;99.90;;;;;;5056097;28;20186;-51
2021/04/12 14:14:19;;;;;;;2.63;2.40;;;4.20;99.90;;;;;;5055709;28;20195;-47
2021/04/12 14:16:47;;;;;;;2.60;2.40;;;4.20;99.90;;;;;;5056223;28;20195;-55
2021/04/12 14:19:21;;;;;;;2.07;1.97;;;4.10;99.90;;;;;;5056251;28;20218;-55
2021/04/12 14:21:49;;;;;;;2.67;2.47;;;4.10;99.90;;;;;;5055303;28;20245;-52
2021/04/12 14:24:52;;;;;;;2.77;2.57;;;4.00;99.90;;;;;;5056251;28;20717;-55
2021/04/12 14:27:28;;;;;;;2.50;2.30;;;4.00;99.90;;;;;;5025151;28;20219;-50
2021/04/12 14:30:05;;;;;;;2.63;2.43;;;4.10;99.90;;;;;;5056024;28;20179;-53
2021/04/12 14:32:36;;;;;;;2.70;2.47;;;4.10;99.90;;;;;;5055241;28;20191;-54
2021/04/12 14:35:07;;;;;;;2.53;2.33;;;4.00;99.90;;;;;;5065219;28;20193;-47
2021/04/12 14:37:37;;;;;;;2.53;2.33;;;4.00;99.90;;;;;;5074833;28;20194;-51